createdAt,value
2018-11-01T00:00:50.876Z,10.77
2018-11-01T00:03:18.704Z,7.43
2018-11-01T00:05:46.532Z,6.40
2018-11-01T00:08:14.507Z,6.83
2018-11-01T00:10:42.401Z,7.17
2018-11-01T00:13:10.114Z,7.13
2018-11-01T00:15:37.869Z,8.37
2018-11-01T00:18:05.831Z,8.70
2018-11-01T00:20:33.608Z,9.63
2018-11-01T00:23:01.370Z,5.97
2018-11-01T00:25:29.331Z,6.13
2018-11-01T00:27:57.225Z,6.70
2018-11-01T00:30:24.985Z,7.13
2018-11-01T00:32:53.140Z,5.53
2018-11-01T00:35:20.869Z,7.37
2018-11-01T00:37:49.003Z,5.50
2018-11-01T00:40:16.792Z,6.10
2018-11-01T00:42:44.880Z,5.07
2018-11-01T00:45:13.288Z,5.27
2018-11-01T00:47:41.101Z,5.70
2018-11-01T00:50:11.659Z,5.13
2018-11-01T00:52:41.782Z,5.67
2018-11-01T00:55:10.892Z,5.00
2018-11-01T00:57:39.184Z,6.53
2018-11-01T01:00:09.182Z,5.87
2018-11-01T01:02:36.903Z,8.23
2018-11-01T01:05:06.347Z,6.77
2018-11-01T01:07:34.078Z,6.03
2018-11-01T01:10:01.879Z,5.47
2018-11-01T01:12:29.989Z,5.90
2018-11-01T01:14:57.768Z,6.00
2018-11-01T01:17:25.531Z,6.33
2018-11-01T01:19:53.473Z,6.13
2018-11-01T01:22:21.209Z,6.37
2018-11-01T01:24:48.982Z,7.30
2018-11-01T01:27:16.828Z,6.77
2018-11-01T01:29:44.595Z,6.07
2018-11-01T01:32:12.600Z,5.23
2018-11-01T01:34:40.534Z,4.43
2018-11-01T01:37:08.196Z,6.43
2018-11-01T01:39:36.216Z,8.30
2018-11-01T01:42:03.992Z,6.00
2018-11-01T01:44:31.829Z,5.73
2018-11-01T01:46:59.984Z,5.33
2018-11-01T01:49:27.782Z,5.40
2018-11-01T01:51:55.568Z,6.27
2018-11-01T01:54:23.242Z,6.23
2018-11-01T01:56:51.023Z,4.30
2018-11-01T01:59:18.769Z,5.90
2018-11-01T02:01:46.790Z,7.73
2018-11-01T02:04:14.585Z,7.40
2018-11-01T02:06:42.329Z,4.87
2018-11-01T02:09:11.263Z,4.57
2018-11-01T02:11:40.188Z,5.13
2018-11-01T02:14:07.958Z,5.27
2018-11-01T02:16:36.254Z,5.40
2018-11-01T02:19:04.535Z,4.73
2018-11-01T02:21:32.257Z,5.93
2018-11-01T02:24:01.342Z,4.73
2018-11-01T02:26:29.045Z,4.80
2018-11-01T02:28:57.771Z,7.00
2018-11-01T02:31:25.639Z,5.77
2018-11-01T02:33:53.423Z,8.57
2018-11-01T02:36:21.197Z,6.03
2018-11-01T02:38:49.537Z,8.43
2018-11-01T02:41:17.218Z,7.70
2018-11-01T02:43:45.010Z,7.57
2018-11-01T02:46:13.056Z,6.43
2018-11-01T02:48:40.779Z,5.77
2018-11-01T02:51:08.544Z,4.83
2018-11-01T02:53:37.004Z,4.97
2018-11-01T02:56:05.131Z,6.23
2018-11-01T02:58:32.840Z,6.27
2018-11-01T03:01:00.799Z,7.60
2018-11-01T03:03:28.767Z,4.90
2018-11-01T03:05:56.598Z,4.47
2018-11-01T03:08:24.381Z,6.97
2018-11-01T03:10:52.302Z,7.10
2018-11-01T03:13:20.006Z,5.47
2018-11-01T03:15:47.765Z,5.67
2018-11-01T03:18:15.683Z,5.57
2018-11-01T03:20:43.502Z,6.00
2018-11-01T03:23:11.283Z,5.67
2018-11-01T03:25:39.392Z,5.70
2018-11-01T03:28:07.207Z,5.40
2018-11-01T03:30:34.929Z,6.23
2018-11-01T03:33:21.745Z,6.67
2018-11-01T03:35:49.498Z,5.00
2018-11-01T03:38:17.331Z,5.97
2018-11-01T03:40:45.576Z,5.67
2018-11-01T03:43:13.409Z,4.90
2018-11-01T03:45:41.209Z,6.27
2018-11-01T03:48:39.566Z,5.93
2018-11-01T03:51:28.506Z,5.43
2018-11-01T03:53:56.154Z,5.03
2018-11-01T03:56:23.783Z,4.23
2018-11-01T03:58:51.572Z,5.50
2018-11-01T04:01:19.583Z,6.03
2018-11-01T04:03:47.300Z,6.93
2018-11-01T04:06:15.109Z,5.37
2018-11-01T04:08:43.133Z,5.60
2018-11-01T04:11:11.024Z,5.03
2018-11-01T04:13:38.873Z,5.90
2018-11-01T04:16:07.191Z,8.13
2018-11-01T04:18:34.982Z,7.33
2018-11-01T04:21:02.749Z,8.60
2018-11-01T04:23:30.826Z,5.60
2018-11-01T04:25:58.520Z,7.30
2018-11-01T04:28:26.347Z,6.57
2018-11-01T04:30:54.040Z,7.13
2018-11-01T04:33:21.863Z,8.13
2018-11-01T04:35:49.451Z,5.27
2018-11-01T04:38:17.355Z,6.73
2018-11-01T04:40:45.093Z,7.43
2018-11-01T04:43:13.027Z,6.63
2018-11-01T04:45:40.759Z,5.90
2018-11-01T04:48:28.283Z,7.60
2018-11-01T04:50:56.214Z,5.47
2018-11-01T04:53:23.919Z,6.93
2018-11-01T04:55:52.284Z,5.50
2018-11-01T04:58:20.003Z,5.80
2018-11-01T05:00:47.779Z,7.63
2018-11-01T05:03:16.004Z,6.57
2018-11-01T05:05:43.680Z,6.20
2018-11-01T05:08:11.408Z,7.70
2018-11-01T05:10:40.699Z,7.87
2018-11-01T05:13:08.401Z,10.37
2018-11-01T05:15:36.806Z,8.33
2018-11-01T05:18:05.108Z,8.73
2018-11-01T05:20:32.762Z,7.43
2018-11-01T05:23:00.455Z,13.20
2018-11-01T05:25:28.345Z,6.97
2018-11-01T05:27:56.063Z,5.83
2018-11-01T05:30:23.715Z,7.07
2018-11-01T05:32:51.720Z,8.63
2018-11-01T05:35:19.380Z,5.83
2018-11-01T05:37:47.064Z,8.53
2018-11-01T05:40:15.024Z,6.47
2018-11-01T05:42:43.090Z,6.77
2018-11-01T05:45:11.096Z,7.17
2018-11-01T05:47:39.049Z,6.60
2018-11-01T05:50:06.924Z,6.23
2018-11-01T05:52:35.165Z,6.63
2018-11-01T05:55:03.823Z,5.93
2018-11-01T05:57:31.620Z,6.43
2018-11-01T05:59:59.964Z,6.27
2018-11-01T06:02:32.695Z,6.17
2018-11-01T06:05:00.677Z,5.73
2018-11-01T06:07:30.566Z,7.97
2018-11-01T06:09:58.300Z,6.53
2018-11-01T06:12:27.242Z,6.77
2018-11-01T06:14:54.792Z,8.43
2018-11-01T06:17:22.409Z,5.13
2018-11-01T06:19:50.080Z,6.43
2018-11-01T06:22:17.751Z,5.53
2018-11-01T06:24:45.710Z,6.97
2018-11-01T06:27:13.427Z,6.60
2018-11-01T06:29:41.055Z,5.30
2018-11-01T06:32:08.770Z,4.27
2018-11-01T06:34:40.603Z,5.90
2018-11-01T06:37:08.242Z,4.37
2018-11-01T06:39:35.911Z,5.93
2018-11-01T06:42:03.827Z,4.87
2018-11-01T06:44:31.511Z,3.37
2018-11-01T06:46:59.142Z,4.20
2018-11-01T06:49:26.986Z,3.30
2018-11-01T06:51:54.734Z,2.30
2018-11-01T06:54:22.405Z,3.37
2018-11-01T06:56:50.408Z,3.13
2018-11-01T06:59:18.842Z,2.63
2018-11-01T07:01:46.416Z,4.90
2018-11-01T07:04:14.663Z,2.67
2018-11-01T07:06:42.301Z,2.80
2018-11-01T07:09:11.454Z,3.37
2018-11-01T07:11:39.380Z,4.07
2018-11-01T07:14:08.229Z,3.33
2018-11-01T07:16:35.891Z,4.07
2018-11-01T07:19:04.122Z,4.70
2018-11-01T07:21:31.798Z,3.97
2018-11-01T07:23:59.419Z,2.63
2018-11-01T07:26:27.215Z,3.07
2018-11-01T07:28:54.795Z,3.93
2018-11-01T07:31:22.452Z,5.10
2018-11-01T07:33:50.104Z,4.93
2018-11-01T07:36:18.732Z,2.30
2018-11-01T07:38:46.522Z,4.13
2018-11-01T07:41:14.116Z,4.17
2018-11-01T07:43:41.858Z,2.90
2018-11-01T07:46:09.689Z,3.67
2018-11-01T07:48:37.451Z,4.10
2018-11-01T07:51:05.100Z,2.77
2018-11-01T07:53:33.012Z,3.60
2018-11-01T07:56:00.684Z,3.67
2018-11-01T07:58:28.318Z,2.37
2018-11-01T08:00:56.157Z,3.50
2018-11-01T08:03:23.668Z,3.97
2018-11-01T08:05:51.373Z,4.07
2018-11-01T08:08:19.220Z,2.23
2018-11-01T08:10:46.673Z,2.10
2018-11-01T08:13:14.249Z,2.83
2018-11-01T08:15:42.136Z,2.00
2018-11-01T08:18:09.706Z,3.00
2018-11-01T08:20:37.407Z,3.60
2018-11-01T08:23:05.050Z,2.00
2018-11-01T08:25:32.660Z,1.90
2018-11-01T08:28:00.356Z,1.53
2018-11-01T08:30:28.125Z,2.47
2018-11-01T08:32:55.688Z,2.73
2018-11-01T08:35:23.253Z,2.63
2018-11-01T08:37:51.121Z,1.60
2018-11-01T08:40:18.669Z,1.87
2018-11-01T08:42:47.245Z,1.37
2018-11-01T08:45:15.578Z,1.67
2018-11-01T08:47:43.194Z,3.23
2018-11-01T08:50:12.028Z,1.73
2018-11-01T08:52:40.695Z,1.90
2018-11-01T08:55:08.942Z,3.00
2018-11-01T08:57:36.601Z,3.10
2018-11-01T09:00:05.353Z,2.37
2018-11-01T09:02:32.951Z,2.40
2018-11-01T09:05:01.086Z,2.13
2018-11-01T09:07:29.145Z,1.30
2018-11-01T09:09:56.747Z,0.87
2018-11-01T09:12:24.431Z,2.17
2018-11-01T09:17:19.529Z,1.73
2018-11-01T09:19:47.414Z,1.00
2018-11-01T09:22:14.964Z,1.97
2018-11-01T09:24:42.621Z,1.30
2018-11-01T09:27:10.579Z,0.80
2018-11-01T09:29:38.242Z,1.10
2018-11-01T09:32:05.918Z,2.30
2018-11-01T09:34:33.932Z,0.93
2018-11-01T09:37:01.579Z,1.80
2018-11-01T09:39:29.228Z,2.93
2018-11-01T09:46:51.844Z,1.00
2018-11-01T09:49:19.017Z,2.87
2018-11-01T09:54:13.935Z,1.30
2018-11-01T09:59:09.335Z,3.40
2018-11-01T10:01:37.094Z,1.30
2018-11-01T10:06:32.115Z,2.07
2018-11-01T10:08:59.660Z,2.43
2018-11-01T10:11:27.808Z,2.03
2018-11-01T10:13:55.345Z,2.07
2018-11-01T10:16:23.111Z,2.03
2018-11-01T10:21:18.153Z,1.40
2018-11-01T10:23:45.681Z,2.50
2018-11-01T10:26:13.339Z,2.47
2018-11-01T10:28:41.272Z,2.47
2018-11-01T10:31:08.791Z,1.30
2018-11-01T10:33:36.520Z,2.93
2018-11-01T10:36:05.095Z,1.87
2018-11-01T10:38:32.722Z,1.10
2018-11-01T10:41:00.396Z,1.63
2018-11-01T10:45:55.260Z,2.97
2018-11-01T10:48:22.802Z,3.47
2018-11-01T10:50:50.724Z,1.57
2018-11-01T10:53:18.533Z,2.20
2018-11-01T10:55:46.182Z,2.80
2018-11-01T10:58:14.008Z,0.90
2018-11-01T11:00:47.473Z,2.27
2018-11-01T11:03:14.950Z,1.17
2018-11-01T11:05:42.585Z,2.83
2018-11-01T11:08:10.512Z,1.27
2018-11-01T11:10:38.180Z,1.27
2018-11-01T11:13:06.201Z,1.97
2018-11-01T11:18:01.088Z,1.53
2018-11-01T11:20:28.980Z,1.87
2018-11-01T11:25:24.258Z,1.50
2018-11-01T11:27:52.067Z,1.30
2018-11-01T11:30:19.694Z,1.40
2018-11-01T11:32:48.108Z,1.77
2018-11-01T11:37:42.980Z,1.77
2018-11-01T11:40:11.552Z,2.40
2018-11-01T11:42:39.464Z,2.97
2018-11-01T11:45:09.275Z,2.27
2018-11-01T11:47:36.891Z,2.07
2018-11-01T11:52:33.745Z,3.33
2018-11-01T11:55:01.621Z,2.27
2018-11-01T11:57:29.220Z,2.63
2018-11-01T11:59:56.799Z,1.70
2018-11-01T12:02:25.550Z,2.20
2018-11-01T12:04:53.113Z,2.57
2018-11-01T12:07:20.757Z,2.57
2018-11-01T12:09:48.511Z,5.33
2018-11-01T12:12:16.181Z,2.90
2018-11-01T12:14:43.823Z,4.07
2018-11-01T12:19:38.621Z,2.00
2018-11-01T12:22:06.648Z,1.60
2018-11-01T12:24:34.180Z,3.10
2018-11-01T12:27:01.715Z,1.63
2018-11-01T12:29:29.577Z,4.43
2018-11-01T12:31:57.173Z,2.83
2018-11-01T12:34:25.459Z,1.67
2018-11-01T12:36:54.231Z,2.43
2018-11-01T12:39:21.761Z,2.20
2018-11-01T12:41:49.692Z,2.30
2018-11-01T12:46:45.219Z,3.70
2018-11-01T12:49:12.940Z,3.13
2018-11-01T12:54:09.181Z,2.47
2018-11-01T12:56:36.709Z,2.50
2018-11-01T13:01:31.989Z,2.07
2018-11-01T13:03:59.537Z,1.40
2018-11-01T13:08:54.236Z,4.27
2018-11-01T13:11:21.773Z,2.40
2018-11-01T13:16:16.845Z,5.33
2018-11-01T13:18:44.414Z,3.70
2018-11-01T13:23:39.408Z,3.80
2018-11-01T13:28:34.191Z,2.57
2018-11-01T13:33:29.110Z,4.07
2018-11-01T13:35:56.691Z,3.83
2018-11-01T13:40:52.027Z,3.77
2018-11-01T13:45:47.672Z,2.33
2018-11-01T13:48:15.348Z,4.37
2018-11-01T13:53:10.489Z,3.67
2018-11-01T13:55:38.152Z,4.43
2018-11-01T13:58:06.194Z,5.20
2018-11-01T14:00:33.726Z,2.07
2018-11-01T14:03:01.270Z,2.93
2018-11-01T14:05:29.100Z,4.87
2018-11-01T14:07:56.657Z,3.70
2018-11-01T14:10:24.181Z,3.93
2018-11-01T14:15:19.596Z,4.13
2018-11-01T14:17:46.809Z,5.60
2018-11-01T14:22:42.021Z,3.87
2018-11-01T14:25:10.709Z,3.47
2018-11-01T14:27:38.299Z,3.63
2018-11-01T14:30:10.289Z,3.47
2018-11-01T14:32:38.171Z,5.63
2018-11-01T14:35:06.403Z,3.20
2018-11-01T14:40:01.160Z,4.77
2018-11-01T14:42:28.707Z,5.23
2018-11-01T14:47:23.566Z,3.77
2018-11-01T14:49:54.167Z,2.00
2018-11-01T14:52:24.018Z,4.27
2018-11-01T14:54:52.719Z,2.10
2018-11-01T14:57:20.539Z,2.30
2018-11-01T15:02:14.225Z,2.30
2018-11-01T15:04:41.778Z,3.17
2018-11-01T15:09:36.614Z,5.00
2018-11-01T15:12:05.704Z,2.60
2018-11-01T15:17:00.462Z,4.10
2018-11-01T15:19:28.723Z,2.23
2018-11-01T15:21:56.506Z,3.07
2018-11-01T15:24:24.062Z,3.87
2018-11-01T15:26:51.634Z,6.03
2018-11-01T15:31:46.253Z,4.03
2018-11-01T15:34:14.241Z,4.50
2018-11-01T15:36:41.884Z,5.63
2018-11-01T15:39:10.804Z,2.33
2018-11-01T15:41:38.807Z,2.73
2018-11-01T15:44:06.368Z,2.80
2018-11-01T15:46:33.985Z,4.97
2018-11-01T15:49:02.164Z,4.27
2018-11-01T15:51:30.420Z,2.67
2018-11-01T15:53:57.921Z,4.17
2018-11-01T15:56:25.856Z,5.07
2018-11-01T15:58:53.461Z,3.27
2018-11-01T16:01:21.047Z,4.20
2018-11-01T16:06:16.068Z,4.57
2018-11-01T16:08:43.682Z,2.77
2018-11-01T16:11:11.762Z,3.47
2018-11-01T16:13:39.368Z,5.70
2018-11-01T16:16:07.047Z,6.33
2018-11-01T16:21:02.271Z,3.53
2018-11-01T16:23:29.819Z,3.50
2018-11-01T16:25:57.426Z,3.83
2018-11-01T16:28:25.513Z,3.43
2018-11-01T16:30:53.125Z,2.97
2018-11-01T16:33:20.728Z,4.43
2018-11-01T16:38:15.655Z,7.20
2018-11-01T16:40:43.221Z,3.63
2018-11-01T16:45:37.969Z,8.33
2018-11-01T16:48:05.711Z,5.47
2018-11-01T16:50:34.395Z,4.63
2018-11-01T16:53:02.083Z,5.10
2018-11-01T16:55:29.755Z,5.87
2018-11-01T17:02:52.365Z,4.20
2018-11-01T17:05:19.913Z,6.57
2018-11-01T17:10:14.726Z,5.53
2018-11-01T17:12:42.284Z,4.80
2018-11-01T17:17:39.163Z,4.20
2018-11-01T17:20:07.403Z,7.17
2018-11-01T17:22:35.361Z,5.17
2018-11-01T17:25:03.106Z,6.80
2018-11-01T17:27:30.892Z,7.87
2018-11-01T17:32:26.434Z,5.57
2018-11-01T17:34:53.966Z,5.87
2018-11-01T17:37:23.202Z,5.73
2018-11-01T17:39:50.800Z,8.80
2018-11-01T17:42:18.314Z,7.23
2018-11-01T17:47:13.044Z,6.53
2018-11-01T17:49:40.642Z,7.10
2018-11-01T17:52:09.355Z,4.07
2018-11-01T17:54:36.681Z,5.20
2018-11-01T17:57:04.555Z,6.03
2018-11-01T18:01:59.528Z,6.50
2018-11-01T18:04:27.163Z,5.87
2018-11-01T18:06:55.027Z,4.73
2018-11-01T18:09:22.721Z,4.07
2018-11-01T18:14:32.544Z,5.43
2018-11-01T18:17:01.033Z,5.53
2018-11-01T18:19:30.017Z,4.20
2018-11-01T18:21:58.444Z,4.43
2018-11-01T18:24:26.115Z,6.17
2018-11-01T18:26:54.049Z,5.53
2018-11-01T18:29:21.707Z,5.43
2018-11-01T18:31:49.274Z,3.97
2018-11-01T18:36:44.348Z,4.73
2018-11-01T18:39:11.947Z,4.60
2018-11-01T18:44:07.263Z,5.47
2018-11-01T18:46:35.004Z,4.17
2018-11-01T18:49:04.097Z,5.80
2018-11-01T18:51:31.677Z,5.57
2018-11-01T18:53:59.312Z,4.80
2018-11-01T18:58:54.969Z,6.13
2018-11-01T19:01:22.554Z,5.83
2018-11-01T19:03:50.526Z,6.80
2018-11-01T19:06:18.138Z,7.10
2018-11-01T19:08:45.738Z,6.77
2018-11-01T19:13:40.569Z,6.77
2018-11-01T19:16:08.473Z,7.73
2018-11-01T19:21:04.098Z,8.33
2018-11-01T19:23:31.776Z,5.60
2018-11-01T19:28:26.628Z,5.63
2018-11-01T19:33:21.458Z,5.80
2018-11-01T19:35:49.004Z,7.47
2018-11-01T19:38:17.026Z,4.10
2018-11-01T19:40:44.599Z,5.63
2018-11-01T19:43:12.190Z,6.70
2018-11-01T19:45:40.081Z,5.40
2018-11-01T19:48:07.678Z,6.70
2018-11-01T19:50:35.160Z,5.83
2018-11-01T19:55:30.844Z,8.73
2018-11-01T19:57:58.476Z,3.93
2018-11-01T20:00:27.647Z,7.27
2018-11-01T20:02:55.362Z,6.03
2018-11-01T20:05:23.173Z,10.03
2018-11-01T20:07:52.102Z,5.43
2018-11-01T20:10:19.841Z,6.90
2018-11-01T20:12:47.259Z,11.13
2018-11-01T20:15:15.140Z,7.47
2018-11-01T20:17:42.851Z,8.87
2018-11-01T20:20:12.299Z,6.30
2018-11-01T20:25:08.690Z,7.23
2018-11-01T20:27:36.623Z,5.90
2018-11-01T20:30:08.821Z,8.73
2018-11-01T20:32:36.355Z,7.73
2018-11-01T20:35:05.334Z,6.30
2018-11-01T20:39:59.994Z,8.17
2018-11-01T20:42:27.848Z,7.37
2018-11-01T20:44:55.437Z,7.77
2018-11-01T20:47:23.015Z,8.53
2018-11-01T20:49:50.899Z,5.57
2018-11-01T20:52:19.340Z,8.37
2018-11-01T20:54:47.064Z,5.80
2018-11-01T20:57:15.998Z,7.07
2018-11-01T20:59:44.290Z,5.33
2018-11-01T21:02:12.055Z,5.73
2018-11-01T21:07:08.085Z,5.93
2018-11-01T21:09:35.788Z,9.77
2018-11-01T21:14:30.988Z,7.80
2018-11-01T21:16:58.932Z,7.73
2018-11-01T21:21:54.376Z,5.67
2018-11-01T21:24:22.242Z,7.13
2018-11-01T21:26:50.633Z,5.83
2018-11-01T21:29:18.871Z,6.27
2018-11-01T21:31:46.712Z,6.67
2018-11-01T21:36:42.120Z,5.07
2018-11-01T21:39:10.048Z,7.87
2018-11-01T21:41:38.122Z,9.57
2018-11-01T21:44:05.790Z,7.20
2018-11-01T21:46:33.445Z,15.77
2018-11-01T21:51:29.304Z,8.83
2018-11-01T21:53:57.709Z,6.13
2018-11-01T21:56:26.261Z,5.53
2018-11-01T21:58:54.228Z,7.40
2018-11-01T22:01:21.928Z,5.87
2018-11-01T22:06:16.955Z,5.97
2018-11-01T22:08:44.683Z,5.80
2018-11-01T22:13:40.434Z,5.00
2018-11-01T22:16:08.496Z,6.90
2018-11-01T22:21:04.505Z,6.70
2018-11-01T22:23:32.156Z,7.53
2018-11-01T22:26:00.178Z,6.00
2018-11-01T22:28:27.896Z,7.33
2018-11-01T22:30:55.631Z,6.73
2018-11-01T22:33:23.549Z,7.13
2018-11-01T22:35:51.452Z,7.67
2018-11-01T22:40:46.667Z,6.60
2018-11-01T22:43:16.121Z,6.37
2018-11-01T22:48:12.895Z,7.63
2018-11-01T22:50:40.540Z,6.33
2018-11-01T22:53:08.345Z,7.53
2018-11-01T22:55:36.021Z,5.30
2018-11-01T22:58:03.656Z,6.03
2018-11-01T23:00:31.745Z,5.43
2018-11-01T23:03:03.284Z,5.93
2018-11-01T23:05:30.923Z,8.73
2018-11-01T23:10:26.292Z,6.30
2018-11-01T23:12:54.031Z,4.63
2018-11-01T23:15:21.958Z,6.13
2018-11-01T23:17:49.625Z,6.10
2018-11-01T23:20:17.308Z,5.83
2018-11-01T23:25:13.038Z,6.00
2018-11-01T23:27:40.679Z,5.27
2018-11-01T23:30:08.692Z,6.27
2018-11-01T23:32:36.343Z,5.63
2018-11-01T23:35:04.324Z,9.07
2018-11-01T23:40:11.394Z,6.73
2018-11-01T23:42:45.241Z,4.70
2018-11-01T23:45:18.647Z,5.20
2018-11-01T23:47:52.331Z,5.83
2018-11-01T23:50:28.095Z,6.13
2018-11-01T23:52:57.811Z,5.97
2018-11-01T23:55:25.679Z,5.17
2018-11-01T23:57:53.327Z,6.07
